sensor_id;sensor_type;location;lat;lon;timestamp;P1;durP1;ratioP1;P2;durP2;ratioP2
11504;SDS011;5809;53.262;10.408;2022-07-23T00:00:12;7.15;;;2.75;;
11504;SDS011;5809;53.262;10.408;2022-07-23T00:02:41;3.38;;;2.20;;
11504;SDS011;5809;53.262;10.408;2022-07-23T00:05:08;4.70;;;2.20;;
11504;SDS011;5809;53.262;10.408;2022-07-23T00:07:35;5.97;;;2.33;;
11504;SDS011;5809;53.262;10.408;2022-07-23T00:10:02;6.47;;;2.22;;
11504;SDS011;5809;53.262;10.408;2022-07-23T00:12:30;6.53;;;2.53;;
11504;SDS011;5809;53.262;10.408;2022-07-23T00:14:57;3.45;;;2.20;;
11504;SDS011;5809;53.262;10.408;2022-07-23T00:17:24;4.32;;;2.03;;
11504;SDS011;5809;53.262;10.408;2022-07-23T00:19:55;6.05;;;1.88;;
11504;SDS011;5809;53.262;10.408;2022-07-23T00:22:22;7.03;;;2.05;;
11504;SDS011;5809;53.262;10.408;2022-07-23T00:24:49;4.10;;;2.10;;
11504;SDS011;5809;53.262;10.408;2022-07-23T00:27:16;5.22;;;1.88;;
11504;SDS011;5809;53.262;10.408;2022-07-23T00:29:43;4.82;;;2.20;;
11504;SDS011;5809;53.262;10.408;2022-07-23T00:32:10;3.05;;;1.90;;
11504;SDS011;5809;53.262;10.408;2022-07-23T00:34:38;4.47;;;2.20;;
11504;SDS011;5809;53.262;10.408;2022-07-23T00:37:06;3.83;;;2.00;;
11504;SDS011;5809;53.262;10.408;2022-07-23T00:39:33;3.85;;;1.88;;
11504;SDS011;5809;53.262;10.408;2022-07-23T00:42:00;3.55;;;2.03;;
11504;SDS011;5809;53.262;10.408;2022-07-23T00:44:27;3.63;;;1.60;;
11504;SDS011;5809;53.262;10.408;2022-07-23T00:46:57;4.25;;;2.10;;
11504;SDS011;5809;53.262;10.408;2022-07-23T00:49:26;9.57;;;2.72;;
11504;SDS011;5809;53.262;10.408;2022-07-23T00:51:53;4.43;;;2.30;;
11504;SDS011;5809;53.262;10.408;2022-07-23T00:54:23;5.15;;;2.20;;
11504;SDS011;5809;53.262;10.408;2022-07-23T00:56:52;7.32;;;2.30;;
11504;SDS011;5809;53.262;10.408;2022-07-23T00:59:20;5.82;;;2.03;;
11504;SDS011;5809;53.262;10.408;2022-07-23T01:01:47;5.50;;;2.05;;
11504;SDS011;5809;53.262;10.408;2022-07-23T01:04:14;5.28;;;2.17;;
11504;SDS011;5809;53.262;10.408;2022-07-23T01:06:41;4.80;;;2.10;;
11504;SDS011;5809;53.262;10.408;2022-07-23T01:09:09;4.28;;;2.08;;
11504;SDS011;5809;53.262;10.408;2022-07-23T01:11:38;4.35;;;2.08;;
11504;SDS011;5809;53.262;10.408;2022-07-23T01:14:09;6.90;;;2.00;;
11504;SDS011;5809;53.262;10.408;2022-07-23T01:16:40;3.63;;;1.80;;
11504;SDS011;5809;53.262;10.408;2022-07-23T01:19:08;5.72;;;1.90;;
11504;SDS011;5809;53.262;10.408;2022-07-23T01:21:36;5.38;;;1.95;;
11504;SDS011;5809;53.262;10.408;2022-07-23T01:24:06;4.70;;;2.10;;
11504;SDS011;5809;53.262;10.408;2022-07-23T01:26:33;4.50;;;1.70;;
11504;SDS011;5809;53.262;10.408;2022-07-23T01:29:00;4.10;;;1.85;;
11504;SDS011;5809;53.262;10.408;2022-07-23T01:31:28;3.88;;;1.73;;
11504;SDS011;5809;53.262;10.408;2022-07-23T01:33:55;3.90;;;1.65;;
11504;SDS011;5809;53.262;10.408;2022-07-23T01:36:22;6.43;;;1.85;;
11504;SDS011;5809;53.262;10.408;2022-07-23T01:38:49;3.75;;;2.03;;
11504;SDS011;5809;53.262;10.408;2022-07-23T01:41:18;3.72;;;2.28;;
11504;SDS011;5809;53.262;10.408;2022-07-23T01:43:45;7.22;;;1.70;;
11504;SDS011;5809;53.262;10.408;2022-07-23T01:46:12;6.65;;;1.80;;
11504;SDS011;5809;53.262;10.408;2022-07-23T01:48:40;5.32;;;1.60;;
11504;SDS011;5809;53.262;10.408;2022-07-23T01:51:07;3.75;;;1.70;;
11504;SDS011;5809;53.262;10.408;2022-07-23T01:53:34;4.20;;;1.75;;
11504;SDS011;5809;53.262;10.408;2022-07-23T01:56:01;3.28;;;1.70;;
11504;SDS011;5809;53.262;10.408;2022-07-23T01:58:30;7.75;;;1.65;;
11504;SDS011;5809;53.262;10.408;2022-07-23T02:00:58;5.15;;;1.75;;
11504;SDS011;5809;53.262;10.408;2022-07-23T02:03:25;4.07;;;1.70;;
11504;SDS011;5809;53.262;10.408;2022-07-23T02:05:52;4.22;;;1.55;;
11504;SDS011;5809;53.262;10.408;2022-07-23T02:08:20;5.38;;;1.52;;
11504;SDS011;5809;53.262;10.408;2022-07-23T02:10:47;6.72;;;1.55;;
11504;SDS011;5809;53.262;10.408;2022-07-23T02:13:16;2.45;;;1.58;;
11504;SDS011;5809;53.262;10.408;2022-07-23T02:15:45;5.50;;;1.80;;
11504;SDS011;5809;53.262;10.408;2022-07-23T02:18:12;5.10;;;1.60;;
11504;SDS011;5809;53.262;10.408;2022-07-23T02:20:39;3.08;;;1.70;;
11504;SDS011;5809;53.262;10.408;2022-07-23T02:23:06;6.10;;;1.85;;
11504;SDS011;5809;53.262;10.408;2022-07-23T02:25:34;5.10;;;1.90;;
11504;SDS011;5809;53.262;10.408;2022-07-23T02:28:01;5.53;;;1.70;;
11504;SDS011;5809;53.262;10.408;2022-07-23T02:30:28;2.72;;;1.63;;
11504;SDS011;5809;53.262;10.408;2022-07-23T02:32:57;3.45;;;1.67;;
11504;SDS011;5809;53.262;10.408;2022-07-23T02:35:24;3.90;;;1.80;;
11504;SDS011;5809;53.262;10.408;2022-07-23T02:37:51;4.85;;;2.10;;
11504;SDS011;5809;53.262;10.408;2022-07-23T02:40:19;4.35;;;1.70;;
11504;SDS011;5809;53.262;10.408;2022-07-23T02:42:46;7.72;;;2.05;;
11504;SDS011;5809;53.262;10.408;2022-07-23T02:45:13;4.85;;;1.92;;
11504;SDS011;5809;53.262;10.408;2022-07-23T02:47:40;5.07;;;1.98;;
11504;SDS011;5809;53.262;10.408;2022-07-23T02:50:09;7.75;;;1.98;;
11504;SDS011;5809;53.262;10.408;2022-07-23T02:52:37;3.70;;;1.45;;
11504;SDS011;5809;53.262;10.408;2022-07-23T02:55:04;7.70;;;2.20;;
11504;SDS011;5809;53.262;10.408;2022-07-23T02:57:32;4.13;;;1.67;;
11504;SDS011;5809;53.262;10.408;2022-07-23T02:59:59;4.43;;;1.77;;
11504;SDS011;5809;53.262;10.408;2022-07-23T03:02:27;5.65;;;2.00;;
11504;SDS011;5809;53.262;10.408;2022-07-23T03:04:54;5.78;;;2.10;;
11504;SDS011;5809;53.262;10.408;2022-07-23T03:07:22;5.72;;;2.47;;
11504;SDS011;5809;53.262;10.408;2022-07-23T03:09:50;4.72;;;2.13;;
11504;SDS011;5809;53.262;10.408;2022-07-23T03:12:17;4.35;;;2.00;;
11504;SDS011;5809;53.262;10.408;2022-07-23T03:14:44;3.47;;;2.08;;
11504;SDS011;5809;53.262;10.408;2022-07-23T03:17:11;4.05;;;1.95;;
11504;SDS011;5809;53.262;10.408;2022-07-23T03:19:47;5.63;;;2.13;;
11504;SDS011;5809;53.262;10.408;2022-07-23T03:22:13;3.80;;;2.00;;
11504;SDS011;5809;53.262;10.408;2022-07-23T03:24:40;4.13;;;2.42;;
11504;SDS011;5809;53.262;10.408;2022-07-23T03:27:20;3.95;;;2.28;;
11504;SDS011;5809;53.262;10.408;2022-07-23T03:29:48;4.18;;;2.35;;
11504;SDS011;5809;53.262;10.408;2022-07-23T03:32:15;7.57;;;2.80;;
11504;SDS011;5809;53.262;10.408;2022-07-23T03:34:42;3.30;;;2.45;;
11504;SDS011;5809;53.262;10.408;2022-07-23T03:37:10;4.72;;;2.90;;
11504;SDS011;5809;53.262;10.408;2022-07-23T03:39:37;3.85;;;2.60;;
11504;SDS011;5809;53.262;10.408;2022-07-23T03:42:04;4.20;;;2.38;;
11504;SDS011;5809;53.262;10.408;2022-07-23T03:44:31;6.05;;;2.88;;
11504;SDS011;5809;53.262;10.408;2022-07-23T03:46:59;4.32;;;2.60;;
11504;SDS011;5809;53.262;10.408;2022-07-23T03:49:26;7.70;;;2.90;;
11504;SDS011;5809;53.262;10.408;2022-07-23T03:51:53;5.55;;;2.47;;
11504;SDS011;5809;53.262;10.408;2022-07-23T03:54:21;5.72;;;2.58;;
11504;SDS011;5809;53.262;10.408;2022-07-23T03:56:48;4.18;;;2.35;;
11504;SDS011;5809;53.262;10.408;2022-07-23T03:59:15;9.85;;;2.55;;
11504;SDS011;5809;53.262;10.408;2022-07-23T04:01:42;4.90;;;2.30;;
11504;SDS011;5809;53.262;10.408;2022-07-23T04:04:09;3.95;;;2.30;;
11504;SDS011;5809;53.262;10.408;2022-07-23T04:06:37;5.90;;;2.28;;
11504;SDS011;5809;53.262;10.408;2022-07-23T04:09:04;2.90;;;2.20;;
11504;SDS011;5809;53.262;10.408;2022-07-23T04:11:32;4.95;;;2.08;;
11504;SDS011;5809;53.262;10.408;2022-07-23T04:13:59;5.40;;;2.10;;
11504;SDS011;5809;53.262;10.408;2022-07-23T04:16:26;4.03;;;1.80;;
11504;SDS011;5809;53.262;10.408;2022-07-23T04:18:53;4.07;;;1.85;;
11504;SDS011;5809;53.262;10.408;2022-07-23T04:21:20;4.95;;;2.15;;
11504;SDS011;5809;53.262;10.408;2022-07-23T04:23:47;5.95;;;2.30;;
11504;SDS011;5809;53.262;10.408;2022-07-23T04:26:14;4.53;;;1.90;;
11504;SDS011;5809;53.262;10.408;2022-07-23T04:28:43;4.22;;;1.90;;
11504;SDS011;5809;53.262;10.408;2022-07-23T04:31:10;4.65;;;1.63;;
11504;SDS011;5809;53.262;10.408;2022-07-23T04:33:37;4.10;;;2.00;;
11504;SDS011;5809;53.262;10.408;2022-07-23T04:36:04;4.72;;;1.80;;
11504;SDS011;5809;53.262;10.408;2022-07-23T04:38:31;2.50;;;1.70;;
11504;SDS011;5809;53.262;10.408;2022-07-23T04:40:58;8.00;;;2.10;;
11504;SDS011;5809;53.262;10.408;2022-07-23T04:43:25;5.13;;;2.25;;
11504;SDS011;5809;53.262;10.408;2022-07-23T04:45:54;2.42;;;1.80;;
11504;SDS011;5809;53.262;10.408;2022-07-23T04:48:21;5.85;;;2.38;;
11504;SDS011;5809;53.262;10.408;2022-07-23T04:50:48;2.72;;;2.20;;
11504;SDS011;5809;53.262;10.408;2022-07-23T04:53:15;7.38;;;2.58;;
11504;SDS011;5809;53.262;10.408;2022-07-23T04:55:43;7.18;;;3.38;;
11504;SDS011;5809;53.262;10.408;2022-07-23T04:58:10;4.32;;;2.60;;
11504;SDS011;5809;53.262;10.408;2022-07-23T05:00:37;6.45;;;2.75;;
11504;SDS011;5809;53.262;10.408;2022-07-23T05:03:06;3.53;;;2.53;;
11504;SDS011;5809;53.262;10.408;2022-07-23T05:05:33;5.47;;;2.42;;
11504;SDS011;5809;53.262;10.408;2022-07-23T05:08:01;5.55;;;2.40;;
11504;SDS011;5809;53.262;10.408;2022-07-23T05:10:28;4.63;;;2.95;;
11504;SDS011;5809;53.262;10.408;2022-07-23T05:12:55;4.63;;;2.78;;
11504;SDS011;5809;53.262;10.408;2022-07-23T05:15:22;4.45;;;2.40;;
11504;SDS011;5809;53.262;10.408;2022-07-23T05:17:49;5.03;;;2.97;;
11504;SDS011;5809;53.262;10.408;2022-07-23T05:20:18;4.40;;;2.97;;
11504;SDS011;5809;53.262;10.408;2022-07-23T05:22:45;6.95;;;2.92;;
11504;SDS011;5809;53.262;10.408;2022-07-23T05:25:12;4.68;;;3.33;;
11504;SDS011;5809;53.262;10.408;2022-07-23T05:27:39;5.20;;;3.45;;
11504;SDS011;5809;53.262;10.408;2022-07-23T05:30:07;9.43;;;3.67;;
11504;SDS011;5809;53.262;10.408;2022-07-23T05:32:34;5.80;;;3.13;;
11504;SDS011;5809;53.262;10.408;2022-07-23T05:35:02;5.15;;;3.20;;
11504;SDS011;5809;53.262;10.408;2022-07-23T05:37:31;5.85;;;3.15;;
11504;SDS011;5809;53.262;10.408;2022-07-23T05:40:00;5.30;;;3.00;;
11504;SDS011;5809;53.262;10.408;2022-07-23T05:42:28;6.63;;;3.05;;
11504;SDS011;5809;53.262;10.408;2022-07-23T05:44:55;3.63;;;2.60;;
11504;SDS011;5809;53.262;10.408;2022-07-23T05:47:22;6.03;;;2.70;;
11504;SDS011;5809;53.262;10.408;2022-07-23T05:49:49;4.90;;;2.58;;
11504;SDS011;5809;53.262;10.408;2022-07-23T05:52:17;4.55;;;2.70;;
11504;SDS011;5809;53.262;10.408;2022-07-23T05:54:45;4.30;;;2.40;;
11504;SDS011;5809;53.262;10.408;2022-07-23T05:57:12;3.95;;;2.75;;
11504;SDS011;5809;53.262;10.408;2022-07-23T05:59:39;6.25;;;2.67;;
11504;SDS011;5809;53.262;10.408;2022-07-23T06:02:06;7.32;;;2.78;;
11504;SDS011;5809;53.262;10.408;2022-07-23T06:04:33;7.30;;;2.60;;
11504;SDS011;5809;53.262;10.408;2022-07-23T06:07:00;6.85;;;2.67;;
11504;SDS011;5809;53.262;10.408;2022-07-23T06:09:27;10.20;;;3.17;;
11504;SDS011;5809;53.262;10.408;2022-07-23T06:11:56;6.75;;;2.67;;
11504;SDS011;5809;53.262;10.408;2022-07-23T06:14:23;5.85;;;2.50;;
11504;SDS011;5809;53.262;10.408;2022-07-23T06:16:50;3.45;;;2.20;;
11504;SDS011;5809;53.262;10.408;2022-07-23T06:19:17;4.70;;;2.15;;
11504;SDS011;5809;53.262;10.408;2022-07-23T06:21:44;10.77;;;2.55;;
11504;SDS011;5809;53.262;10.408;2022-07-23T06:24:11;3.38;;;1.70;;
11504;SDS011;5809;53.262;10.408;2022-07-23T06:26:38;5.72;;;1.80;;
11504;SDS011;5809;53.262;10.408;2022-07-23T06:29:07;6.97;;;1.73;;
11504;SDS011;5809;53.262;10.408;2022-07-23T06:31:34;5.28;;;1.67;;
11504;SDS011;5809;53.262;10.408;2022-07-23T06:34:01;3.40;;;1.70;;
11504;SDS011;5809;53.262;10.408;2022-07-23T06:36:28;5.60;;;1.92;;
11504;SDS011;5809;53.262;10.408;2022-07-23T06:38:55;5.40;;;1.40;;
11504;SDS011;5809;53.262;10.408;2022-07-23T06:41:22;5.72;;;1.40;;
11504;SDS011;5809;53.262;10.408;2022-07-23T06:43:49;4.63;;;1.55;;
11504;SDS011;5809;53.262;10.408;2022-07-23T06:46:17;5.05;;;1.67;;
11504;SDS011;5809;53.262;10.408;2022-07-23T06:48:44;3.55;;;1.75;;
11504;SDS011;5809;53.262;10.408;2022-07-23T06:51:11;6.40;;;1.60;;
11504;SDS011;5809;53.262;10.408;2022-07-23T06:53:38;2.17;;;1.27;;
11504;SDS011;5809;53.262;10.408;2022-07-23T06:56:06;3.95;;;1.45;;
11504;SDS011;5809;53.262;10.408;2022-07-23T06:58:33;3.60;;;1.48;;
11504;SDS011;5809;53.262;10.408;2022-07-23T07:01:00;5.70;;;1.95;;
11504;SDS011;5809;53.262;10.408;2022-07-23T07:03:29;4.22;;;1.30;;
11504;SDS011;5809;53.262;10.408;2022-07-23T07:05:56;4.30;;;1.55;;
11504;SDS011;5809;53.262;10.408;2022-07-23T07:08:23;5.10;;;1.50;;
11504;SDS011;5809;53.262;10.408;2022-07-23T07:10:51;2.40;;;1.20;;
11504;SDS011;5809;53.262;10.408;2022-07-23T07:13:18;5.07;;;1.42;;
11504;SDS011;5809;53.262;10.408;2022-07-23T07:15:45;4.28;;;1.30;;
11504;SDS011;5809;53.262;10.408;2022-07-23T07:18:12;3.85;;;1.58;;
11504;SDS011;5809;53.262;10.408;2022-07-23T07:20:41;4.38;;;1.17;;
11504;SDS011;5809;53.262;10.408;2022-07-23T07:23:08;3.42;;;1.30;;
11504;SDS011;5809;53.262;10.408;2022-07-23T07:25:35;3.00;;;1.20;;
11504;SDS011;5809;53.262;10.408;2022-07-23T07:28:02;3.67;;;1.13;;
11504;SDS011;5809;53.262;10.408;2022-07-23T07:30:30;2.45;;;1.10;;
11504;SDS011;5809;53.262;10.408;2022-07-23T07:32:57;2.88;;;1.33;;
11504;SDS011;5809;53.262;10.408;2022-07-23T07:35:24;3.58;;;1.20;;
11504;SDS011;5809;53.262;10.408;2022-07-23T07:37:53;2.58;;;1.05;;
11504;SDS011;5809;53.262;10.408;2022-07-23T07:40:20;3.92;;;1.27;;
11504;SDS011;5809;53.262;10.408;2022-07-23T07:42:48;2.35;;;1.02;;
11504;SDS011;5809;53.262;10.408;2022-07-23T07:45:15;1.40;;;0.95;;
11504;SDS011;5809;53.262;10.408;2022-07-23T07:47:43;2.03;;;1.20;;
11504;SDS011;5809;53.262;10.408;2022-07-23T07:50:10;1.98;;;1.00;;
11504;SDS011;5809;53.262;10.408;2022-07-23T07:52:37;3.15;;;0.95;;
11504;SDS011;5809;53.262;10.408;2022-07-23T07:55:07;4.55;;;1.25;;
11504;SDS011;5809;53.262;10.408;2022-07-23T07:57:35;3.58;;;1.20;;
11504;SDS011;5809;53.262;10.408;2022-07-23T08:00:03;2.22;;;1.08;;
11504;SDS011;5809;53.262;10.408;2022-07-23T08:02:38;3.42;;;1.10;;
11504;SDS011;5809;53.262;10.408;2022-07-23T08:05:06;1.77;;;1.10;;
11504;SDS011;5809;53.262;10.408;2022-07-23T08:07:33;6.03;;;1.58;;
11504;SDS011;5809;53.262;10.408;2022-07-23T08:10:00;2.97;;;0.95;;
11504;SDS011;5809;53.262;10.408;2022-07-23T08:12:29;2.25;;;1.08;;
11504;SDS011;5809;53.262;10.408;2022-07-23T08:15:04;3.95;;;1.10;;
11504;SDS011;5809;53.262;10.408;2022-07-23T08:17:31;1.55;;;0.90;;
11504;SDS011;5809;53.262;10.408;2022-07-23T08:19:58;3.63;;;1.00;;
11504;SDS011;5809;53.262;10.408;2022-07-23T08:22:27;4.70;;;1.10;;
11504;SDS011;5809;53.262;10.408;2022-07-23T08:25:08;2.20;;;0.88;;
11504;SDS011;5809;53.262;10.408;2022-07-23T08:27:36;1.92;;;0.93;;
11504;SDS011;5809;53.262;10.408;2022-07-23T08:30:04;2.63;;;1.20;;
11504;SDS011;5809;53.262;10.408;2022-07-23T08:32:32;2.20;;;1.05;;
11504;SDS011;5809;53.262;10.408;2022-07-23T08:34:59;2.47;;;1.00;;
11504;SDS011;5809;53.262;10.408;2022-07-23T08:37:26;1.45;;;1.08;;
11504;SDS011;5809;53.262;10.408;2022-07-23T08:39:52;2.65;;;1.10;;
11504;SDS011;5809;53.262;10.408;2022-07-23T08:42:21;2.70;;;1.15;;
11504;SDS011;5809;53.262;10.408;2022-07-23T08:44:50;3.90;;;1.17;;
11504;SDS011;5809;53.262;10.408;2022-07-23T08:47:17;2.97;;;1.15;;
11504;SDS011;5809;53.262;10.408;2022-07-23T08:49:44;2.55;;;1.00;;
11504;SDS011;5809;53.262;10.408;2022-07-23T08:52:12;4.90;;;1.10;;
11504;SDS011;5809;53.262;10.408;2022-07-23T08:54:41;1.98;;;1.10;;
11504;SDS011;5809;53.262;10.408;2022-07-23T08:57:09;1.80;;;1.10;;
11504;SDS011;5809;53.262;10.408;2022-07-23T08:59:36;2.65;;;1.30;;
11504;SDS011;5809;53.262;10.408;2022-07-23T09:02:05;2.58;;;1.13;;
11504;SDS011;5809;53.262;10.408;2022-07-23T09:04:31;3.83;;;1.40;;
11504;SDS011;5809;53.262;10.408;2022-07-23T09:07:01;2.95;;;1.00;;
11504;SDS011;5809;53.262;10.408;2022-07-23T09:09:28;3.63;;;1.35;;
11504;SDS011;5809;53.262;10.408;2022-07-23T09:12:02;6.03;;;1.40;;
11504;SDS011;5809;53.262;10.408;2022-07-23T09:14:36;4.03;;;1.50;;
11504;SDS011;5809;53.262;10.408;2022-07-23T09:17:13;2.00;;;1.20;;
11504;SDS011;5809;53.262;10.408;2022-07-23T09:19:42;4.22;;;1.30;;
11504;SDS011;5809;53.262;10.408;2022-07-23T09:22:16;2.03;;;1.40;;
11504;SDS011;5809;53.262;10.408;2022-07-23T09:27:26;4.38;;;1.27;;
11504;SDS011;5809;53.262;10.408;2022-07-23T09:30:12;4.10;;;1.25;;
11504;SDS011;5809;53.262;10.408;2022-07-23T09:32:41;1.92;;;1.17;;
11504;SDS011;5809;53.262;10.408;2022-07-23T09:35:09;3.08;;;1.20;;
11504;SDS011;5809;53.262;10.408;2022-07-23T09:37:36;2.85;;;1.30;;
11504;SDS011;5809;53.262;10.408;2022-07-23T09:40:04;1.80;;;0.90;;
11504;SDS011;5809;53.262;10.408;2022-07-23T09:42:32;1.05;;;0.90;;
11504;SDS011;5809;53.262;10.408;2022-07-23T09:44:59;3.00;;;1.05;;
11504;SDS011;5809;53.262;10.408;2022-07-23T09:47:27;3.40;;;1.05;;
11504;SDS011;5809;53.262;10.408;2022-07-23T09:50:00;1.55;;;1.00;;
11504;SDS011;5809;53.262;10.408;2022-07-23T09:52:30;2.22;;;1.00;;
11504;SDS011;5809;53.262;10.408;2022-07-23T09:54:59;3.28;;;1.20;;
11504;SDS011;5809;53.262;10.408;2022-07-23T09:57:26;3.10;;;1.20;;
11504;SDS011;5809;53.262;10.408;2022-07-23T09:59:54;3.30;;;1.15;;
11504;SDS011;5809;53.262;10.408;2022-07-23T10:02:26;2.05;;;1.00;;
11504;SDS011;5809;53.262;10.408;2022-07-23T10:04:54;2.00;;;0.98;;
11504;SDS011;5809;53.262;10.408;2022-07-23T10:07:23;1.73;;;1.10;;
11504;SDS011;5809;53.262;10.408;2022-07-23T10:09:52;1.60;;;1.10;;
11504;SDS011;5809;53.262;10.408;2022-07-23T10:12:19;1.00;;;0.90;;
11504;SDS011;5809;53.262;10.408;2022-07-23T10:14:51;2.55;;;0.70;;
11504;SDS011;5809;53.262;10.408;2022-07-23T10:17:18;1.00;;;0.80;;
11504;SDS011;5809;53.262;10.408;2022-07-23T10:19:46;1.52;;;1.00;;
11504;SDS011;5809;53.262;10.408;2022-07-23T10:22:14;1.70;;;1.10;;
11504;SDS011;5809;53.262;10.408;2022-07-23T10:24:49;1.35;;;0.80;;
11504;SDS011;5809;53.262;10.408;2022-07-23T10:27:27;1.60;;;0.82;;
11504;SDS011;5809;53.262;10.408;2022-07-23T10:30:17;4.95;;;0.80;;
11504;SDS011;5809;53.262;10.408;2022-07-23T10:32:51;1.85;;;0.93;;
11504;SDS011;5809;53.262;10.408;2022-07-23T10:35:24;0.70;;;0.70;;
11504;SDS011;5809;53.262;10.408;2022-07-23T10:37:55;0.95;;;0.80;;
11504;SDS011;5809;53.262;10.408;2022-07-23T10:40:29;1.63;;;0.70;;
11504;SDS011;5809;53.262;10.408;2022-07-23T10:42:58;0.70;;;0.70;;
11504;SDS011;5809;53.262;10.408;2022-07-23T10:45:31;1.05;;;0.70;;
11504;SDS011;5809;53.262;10.408;2022-07-23T10:48:11;0.60;;;0.60;;
11504;SDS011;5809;53.262;10.408;2022-07-23T10:50:39;1.30;;;0.88;;
11504;SDS011;5809;53.262;10.408;2022-07-23T10:53:10;0.80;;;0.80;;
11504;SDS011;5809;53.262;10.408;2022-07-23T10:55:41;2.90;;;0.70;;
11504;SDS011;5809;53.262;10.408;2022-07-23T10:58:09;1.42;;;0.57;;
11504;SDS011;5809;53.262;10.408;2022-07-23T11:00:37;1.88;;;0.90;;
11504;SDS011;5809;53.262;10.408;2022-07-23T11:03:04;2.80;;;0.80;;
11504;SDS011;5809;53.262;10.408;2022-07-23T11:05:52;0.93;;;0.50;;
11504;SDS011;5809;53.262;10.408;2022-07-23T11:08:19;0.60;;;0.60;;
11504;SDS011;5809;53.262;10.408;2022-07-23T11:10:49;1.13;;;0.77;;
11504;SDS011;5809;53.262;10.408;2022-07-23T11:13:30;1.98;;;0.73;;
11504;SDS011;5809;53.262;10.408;2022-07-23T11:16:04;3.10;;;0.80;;
11504;SDS011;5809;53.262;10.408;2022-07-23T11:24:22;1.45;;;1.00;;
11504;SDS011;5809;53.262;10.408;2022-07-23T11:26:59;1.30;;;0.82;;
11504;SDS011;5809;53.262;10.408;2022-07-23T11:29:45;1.38;;;0.70;;
11504;SDS011;5809;53.262;10.408;2022-07-23T11:35:00;0.60;;;0.60;;
11504;SDS011;5809;53.262;10.408;2022-07-23T11:37:32;1.17;;;0.75;;
11504;SDS011;5809;53.262;10.408;2022-07-23T11:40:00;0.68;;;0.50;;
11504;SDS011;5809;53.262;10.408;2022-07-23T11:42:29;1.98;;;0.85;;
11504;SDS011;5809;53.262;10.408;2022-07-23T11:44:56;1.15;;;0.70;;
11504;SDS011;5809;53.262;10.408;2022-07-23T11:47:24;0.60;;;0.50;;
11504;SDS011;5809;53.262;10.408;2022-07-23T11:49:52;1.38;;;0.60;;
11504;SDS011;5809;53.262;10.408;2022-07-23T11:52:19;1.80;;;0.70;;
11504;SDS011;5809;53.262;10.408;2022-07-23T11:54:47;2.45;;;0.60;;
11504;SDS011;5809;53.262;10.408;2022-07-23T11:57:15;7.38;;;0.75;;
11504;SDS011;5809;53.262;10.408;2022-07-23T11:59:43;0.57;;;0.50;;
11504;SDS011;5809;53.262;10.408;2022-07-23T12:02:12;0.95;;;0.63;;
11504;SDS011;5809;53.262;10.408;2022-07-23T12:04:40;0.90;;;0.80;;
11504;SDS011;5809;53.262;10.408;2022-07-23T12:07:22;3.20;;;1.70;;
11504;SDS011;5809;53.262;10.408;2022-07-23T12:09:50;1.30;;;0.88;;
11504;SDS011;5809;53.262;10.408;2022-07-23T12:12:17;2.42;;;0.55;;
11504;SDS011;5809;53.262;10.408;2022-07-23T12:14:49;1.25;;;0.73;;
11504;SDS011;5809;53.262;10.408;2022-07-23T12:17:17;2.30;;;0.70;;
11504;SDS011;5809;53.262;10.408;2022-07-23T12:19:44;1.20;;;0.63;;
11504;SDS011;5809;53.262;10.408;2022-07-23T12:22:12;0.77;;;0.60;;
11504;SDS011;5809;53.262;10.408;2022-07-23T12:24:53;1.33;;;0.90;;
11504;SDS011;5809;53.262;10.408;2022-07-23T12:27:20;2.15;;;0.63;;
11504;SDS011;5809;53.262;10.408;2022-07-23T12:29:49;1.50;;;0.60;;
11504;SDS011;5809;53.262;10.408;2022-07-23T12:32:17;1.42;;;0.93;;
11504;SDS011;5809;53.262;10.408;2022-07-23T12:34:45;1.98;;;0.75;;
11504;SDS011;5809;53.262;10.408;2022-07-23T12:37:25;0.60;;;0.50;;
11504;SDS011;5809;53.262;10.408;2022-07-23T12:39:53;1.00;;;0.60;;
11504;SDS011;5809;53.262;10.408;2022-07-23T12:42:21;0.50;;;0.50;;
11504;SDS011;5809;53.262;10.408;2022-07-23T12:45:07;0.55;;;0.40;;
11504;SDS011;5809;53.262;10.408;2022-07-23T12:53:17;2.97;;;0.68;;
11504;SDS011;5809;53.262;10.408;2022-07-23T12:55:46;1.05;;;0.70;;
11504;SDS011;5809;53.262;10.408;2022-07-23T12:58:14;1.75;;;0.55;;
11504;SDS011;5809;53.262;10.408;2022-07-23T13:00:50;0.65;;;0.60;;
11504;SDS011;5809;53.262;10.408;2022-07-23T13:03:22;1.73;;;0.70;;
11504;SDS011;5809;53.262;10.408;2022-07-23T13:05:50;1.58;;;0.60;;
11504;SDS011;5809;53.262;10.408;2022-07-23T13:08:17;0.68;;;0.55;;
11504;SDS011;5809;53.262;10.408;2022-07-23T13:10:44;0.50;;;0.50;;
11504;SDS011;5809;53.262;10.408;2022-07-23T13:13:14;2.08;;;0.60;;
11504;SDS011;5809;53.262;10.408;2022-07-23T13:15:41;2.50;;;1.48;;
11504;SDS011;5809;53.262;10.408;2022-07-23T13:18:10;2.90;;;1.83;;
11504;SDS011;5809;53.262;10.408;2022-07-23T13:20:37;2.58;;;0.70;;
11504;SDS011;5809;53.262;10.408;2022-07-23T13:23:05;3.35;;;0.80;;
11504;SDS011;5809;53.262;10.408;2022-07-23T13:25:32;0.98;;;0.70;;
11504;SDS011;5809;53.262;10.408;2022-07-23T13:27:59;1.60;;;0.88;;
11504;SDS011;5809;53.262;10.408;2022-07-23T13:30:27;2.70;;;0.70;;
11504;SDS011;5809;53.262;10.408;2022-07-23T13:32:54;1.50;;;0.90;;
11504;SDS011;5809;53.262;10.408;2022-07-23T13:35:22;0.55;;;0.55;;
11504;SDS011;5809;53.262;10.408;2022-07-23T13:37:50;0.85;;;0.50;;
11504;SDS011;5809;53.262;10.408;2022-07-23T13:40:17;1.30;;;0.70;;
11504;SDS011;5809;53.262;10.408;2022-07-23T13:42:44;2.08;;;0.80;;
11504;SDS011;5809;53.262;10.408;2022-07-23T13:45:11;1.48;;;0.70;;
11504;SDS011;5809;53.262;10.408;2022-07-23T13:47:38;1.10;;;0.70;;
11504;SDS011;5809;53.262;10.408;2022-07-23T13:50:06;1.55;;;0.70;;
11504;SDS011;5809;53.262;10.408;2022-07-23T13:52:34;1.08;;;0.80;;
11504;SDS011;5809;53.262;10.408;2022-07-23T13:55:02;1.58;;;0.60;;
11504;SDS011;5809;53.262;10.408;2022-07-23T13:57:29;2.60;;;0.80;;
11504;SDS011;5809;53.262;10.408;2022-07-23T13:59:57;1.67;;;0.70;;
11504;SDS011;5809;53.262;10.408;2022-07-23T14:02:24;1.85;;;0.75;;
11504;SDS011;5809;53.262;10.408;2022-07-23T14:04:52;3.97;;;0.70;;
11504;SDS011;5809;53.262;10.408;2022-07-23T14:07:19;1.67;;;0.70;;
11504;SDS011;5809;53.262;10.408;2022-07-23T14:09:48;1.00;;;0.70;;
11504;SDS011;5809;53.262;10.408;2022-07-23T14:12:15;1.35;;;0.70;;
11504;SDS011;5809;53.262;10.408;2022-07-23T14:14:42;2.50;;;0.93;;
11504;SDS011;5809;53.262;10.408;2022-07-23T14:17:09;0.77;;;0.50;;
11504;SDS011;5809;53.262;10.408;2022-07-23T14:19:36;0.88;;;0.68;;
11504;SDS011;5809;53.262;10.408;2022-07-23T14:22:03;0.93;;;0.70;;
11504;SDS011;5809;53.262;10.408;2022-07-23T14:24:31;1.10;;;0.80;;
11504;SDS011;5809;53.262;10.408;2022-07-23T14:27:00;3.30;;;0.85;;
11504;SDS011;5809;53.262;10.408;2022-07-23T14:29:28;2.67;;;0.90;;
11504;SDS011;5809;53.262;10.408;2022-07-23T14:31:55;1.38;;;0.70;;
11504;SDS011;5809;53.262;10.408;2022-07-23T14:34:22;1.90;;;0.73;;
11504;SDS011;5809;53.262;10.408;2022-07-23T14:36:50;2.08;;;0.65;;
11504;SDS011;5809;53.262;10.408;2022-07-23T14:39:17;1.42;;;0.70;;
11504;SDS011;5809;53.262;10.408;2022-07-23T14:41:44;2.00;;;0.60;;
11504;SDS011;5809;53.262;10.408;2022-07-23T14:44:13;2.15;;;0.60;;
11504;SDS011;5809;53.262;10.408;2022-07-23T14:46:40;2.75;;;0.90;;
11504;SDS011;5809;53.262;10.408;2022-07-23T14:49:07;1.02;;;0.80;;
11504;SDS011;5809;53.262;10.408;2022-07-23T14:51:34;1.58;;;0.80;;
11504;SDS011;5809;53.262;10.408;2022-07-23T14:54:01;2.35;;;0.75;;
11504;SDS011;5809;53.262;10.408;2022-07-23T14:56:29;1.00;;;0.70;;
11504;SDS011;5809;53.262;10.408;2022-07-23T14:58:56;1.80;;;0.80;;
11504;SDS011;5809;53.262;10.408;2022-07-23T15:01:25;2.60;;;1.00;;
11504;SDS011;5809;53.262;10.408;2022-07-23T15:03:52;1.92;;;0.90;;
11504;SDS011;5809;53.262;10.408;2022-07-23T15:06:19;0.82;;;0.80;;
11504;SDS011;5809;53.262;10.408;2022-07-23T15:08:46;1.35;;;0.77;;
11504;SDS011;5809;53.262;10.408;2022-07-23T15:11:13;1.50;;;0.70;;